createdAt,value
2023-04-07T00:01:15.627Z,99.67
2023-04-07T00:03:42.311Z,100.00
2023-04-07T00:06:08.839Z,100.00
2023-04-07T00:08:35.223Z,99.19
2023-04-07T00:11:01.916Z,99.74
2023-04-07T00:13:29.525Z,99.50
2023-04-07T00:15:56.564Z,98.73
2023-04-07T00:18:22.981Z,98.19
2023-04-07T00:20:49.336Z,98.67
2023-04-07T00:23:15.829Z,98.50
2023-04-07T00:25:42.359Z,97.55
2023-04-07T00:28:08.754Z,98.56
2023-04-07T00:30:35.155Z,97.24
2023-04-07T00:33:01.747Z,96.79
2023-04-07T00:35:28.198Z,97.76
2023-04-07T00:37:54.528Z,96.91
2023-04-07T00:40:21.225Z,97.82
2023-04-07T00:42:47.572Z,96.43
2023-04-07T00:45:13.967Z,96.57
2023-04-07T00:47:40.594Z,95.88
2023-04-07T00:50:07.718Z,96.06
2023-04-07T00:52:34.145Z,96.26
2023-04-07T00:55:00.833Z,96.30
2023-04-07T00:57:27.413Z,97.05
2023-04-07T00:59:54.327Z,96.73
2023-04-07T01:02:59.395Z,95.98
2023-04-07T01:05:35.285Z,96.07
2023-04-07T01:08:33.544Z,95.92
2023-04-07T01:11:27.194Z,95.80
2023-04-07T01:13:54.359Z,96.22
2023-04-07T01:16:27.052Z,96.13
2023-04-07T01:18:55.220Z,97.35
2023-04-07T01:21:21.559Z,96.94
2023-04-07T01:23:57.298Z,96.40
2023-04-07T01:26:28.143Z,97.29
2023-04-07T01:29:31.448Z,97.72
2023-04-07T01:31:59.284Z,96.84
2023-04-07T01:34:26.085Z,98.56
2023-04-07T01:36:52.611Z,98.54
2023-04-07T01:39:18.985Z,99.91
2023-04-07T01:41:45.493Z,97.59
2023-04-07T01:44:12.049Z,97.09
2023-04-07T01:46:38.474Z,98.39
2023-04-07T01:49:04.933Z,97.83
2023-04-07T01:51:31.672Z,99.52
2023-04-07T01:53:59.000Z,97.68
2023-04-07T01:56:25.585Z,96.31
2023-04-07T01:58:51.962Z,96.39
2023-04-07T02:01:18.388Z,98.12
2023-04-07T02:03:49.357Z,100.00
2023-04-07T02:06:18.531Z,99.27
2023-04-07T02:08:48.225Z,99.12
2023-04-07T02:11:15.807Z,100.00
2023-04-07T02:13:42.334Z,99.02
2023-04-07T02:16:08.708Z,98.99
2023-04-07T02:18:35.061Z,99.96
2023-04-07T02:21:01.596Z,99.94
2023-04-07T02:23:27.945Z,99.97
2023-04-07T02:25:57.869Z,100.00
2023-04-07T02:28:24.287Z,100.00
2023-04-07T02:30:50.675Z,100.00
2023-04-07T02:33:17.149Z,98.85
2023-04-07T02:35:43.703Z,98.94
2023-04-07T02:38:10.442Z,97.74
2023-04-07T02:40:36.916Z,100.00
2023-04-07T02:43:05.072Z,100.00
2023-04-07T02:45:31.518Z,100.00
2023-04-07T02:47:57.946Z,100.00
2023-04-07T02:50:26.005Z,100.00
2023-04-07T02:52:52.425Z,100.00
2023-04-07T02:55:18.874Z,100.00
2023-04-07T02:57:45.459Z,100.00
2023-04-07T03:00:12.315Z,100.00
2023-04-07T03:02:38.776Z,100.00
2023-04-07T03:05:05.628Z,100.00
2023-04-07T03:07:32.022Z,100.00
2023-04-07T03:09:58.380Z,100.00
2023-04-07T03:12:24.745Z,100.00
2023-04-07T03:14:51.139Z,100.00
2023-04-07T03:17:17.494Z,100.00
2023-04-07T03:19:44.035Z,100.00
2023-04-07T03:22:10.377Z,100.00
2023-04-07T03:24:37.787Z,100.00
2023-04-07T03:27:04.245Z,100.00
2023-04-07T03:29:30.717Z,100.00
2023-04-07T03:31:57.101Z,100.00
2023-04-07T03:34:23.660Z,100.00
2023-04-07T03:36:49.999Z,100.00
2023-04-07T03:39:16.435Z,100.00
2023-04-07T03:41:42.833Z,100.00
2023-04-07T03:44:09.203Z,100.00
2023-04-07T03:46:35.639Z,100.00
2023-04-07T03:49:02.332Z,100.00
2023-04-07T03:51:28.785Z,100.00
2023-04-07T03:53:55.331Z,100.00
2023-04-07T03:56:22.629Z,100.00
2023-04-07T03:58:49.264Z,100.00
2023-04-07T04:01:16.022Z,100.00
2023-04-07T04:03:42.813Z,100.00
2023-04-07T04:06:09.261Z,100.00
2023-04-07T04:08:35.655Z,100.00
2023-04-07T04:11:02.289Z,100.00
2023-04-07T04:13:28.642Z,100.00
2023-04-07T04:15:55.156Z,100.00
2023-04-07T04:18:21.602Z,100.00
2023-04-07T04:20:48.740Z,100.00
2023-04-07T04:23:15.895Z,100.00
2023-04-07T04:25:42.445Z,100.00
2023-04-07T04:28:08.788Z,100.00
2023-04-07T04:30:35.359Z,100.00
2023-04-07T04:33:01.962Z,100.00
2023-04-07T04:35:28.444Z,100.00
2023-04-07T04:37:54.826Z,100.00
2023-04-07T04:40:21.677Z,100.00
2023-04-07T04:42:48.023Z,100.00
2023-04-07T04:45:14.413Z,100.00
2023-04-07T04:47:41.575Z,100.00
2023-04-07T04:50:08.317Z,100.00
2023-04-07T04:52:34.753Z,100.00
2023-04-07T04:55:01.393Z,100.00
2023-04-07T04:57:27.749Z,100.00
2023-04-07T04:59:54.070Z,100.00
2023-04-07T05:02:20.662Z,100.00
2023-04-07T05:04:47.226Z,100.00
2023-04-07T05:07:13.653Z,100.00
2023-04-07T05:09:40.502Z,100.00
2023-04-07T05:12:07.271Z,100.00
2023-04-07T05:14:33.629Z,100.00
2023-04-07T05:17:01.004Z,100.00
2023-04-07T05:19:29.535Z,100.00
2023-04-07T05:21:56.282Z,100.00
2023-04-07T05:24:22.891Z,100.00
2023-04-07T05:26:49.264Z,100.00
2023-04-07T05:29:15.610Z,100.00
2023-04-07T05:31:42.231Z,100.00
2023-04-07T05:34:08.633Z,100.00
2023-04-07T05:36:35.183Z,100.00
2023-04-07T05:39:01.824Z,100.00
2023-04-07T05:41:28.199Z,100.00
2023-04-07T05:43:54.543Z,100.00
2023-04-07T05:46:21.062Z,100.00
2023-04-07T05:48:47.476Z,100.00
2023-04-07T05:51:13.823Z,100.00
2023-04-07T05:53:40.401Z,100.00
2023-04-07T05:56:07.183Z,100.00
2023-04-07T05:58:33.600Z,100.00
2023-04-07T06:01:00.149Z,100.00
2023-04-07T06:03:26.585Z,100.00
2023-04-07T06:05:53.062Z,100.00
2023-04-07T06:08:19.496Z,100.00
2023-04-07T06:10:46.680Z,100.00
2023-04-07T06:13:13.232Z,100.00
2023-04-07T06:15:39.614Z,100.00
2023-04-07T06:18:06.037Z,100.00
2023-04-07T06:20:32.467Z,100.00
2023-04-07T06:22:59.055Z,100.00
2023-04-07T06:25:25.384Z,100.00
2023-04-07T06:27:51.810Z,100.00
2023-04-07T06:30:18.472Z,100.00
2023-04-07T06:32:44.832Z,100.00
2023-04-07T06:35:11.236Z,100.00
2023-04-07T06:37:39.362Z,100.00
2023-04-07T06:40:07.511Z,100.00
2023-04-07T06:42:33.872Z,100.00
2023-04-07T06:45:00.485Z,100.00
2023-04-07T06:47:26.856Z,100.00
2023-04-07T06:49:53.230Z,100.00
2023-04-07T06:52:19.768Z,100.00
2023-04-07T06:54:46.102Z,100.00
2023-04-07T06:57:12.450Z,100.00
2023-04-07T06:59:39.310Z,100.00
2023-04-07T07:02:07.544Z,100.00
2023-04-07T07:04:34.841Z,100.00
2023-04-07T07:07:01.614Z,100.00
2023-04-07T07:09:27.966Z,100.00
2023-04-07T07:11:54.316Z,100.00
2023-04-07T07:14:20.866Z,100.00
2023-04-07T07:16:47.215Z,100.00
2023-04-07T07:19:15.043Z,100.00
2023-04-07T07:21:41.645Z,100.00
2023-04-07T07:24:08.055Z,100.00
2023-04-07T07:26:34.453Z,100.00
2023-04-07T07:29:01.052Z,100.00
2023-04-07T07:31:27.444Z,100.00
2023-04-07T07:33:53.959Z,100.00
2023-04-07T07:36:20.573Z,100.00
2023-04-07T07:38:46.973Z,100.00
2023-04-07T07:41:13.328Z,100.00
2023-04-07T07:43:39.909Z,100.00
2023-04-07T07:46:06.259Z,100.00
2023-04-07T07:48:32.676Z,100.00
2023-04-07T07:50:59.055Z,100.00
2023-04-07T07:53:25.471Z,100.00
2023-04-07T07:55:51.881Z,100.00
2023-04-07T07:58:18.316Z,100.00
2023-04-07T08:00:44.758Z,100.00
2023-04-07T08:03:11.381Z,100.00
2023-04-07T08:05:38.061Z,100.00
2023-04-07T08:08:04.448Z,100.00
2023-04-07T08:10:30.947Z,100.00
2023-04-07T08:12:57.579Z,100.00
2023-04-07T08:15:23.948Z,100.00
2023-04-07T08:17:50.408Z,100.00
2023-04-07T08:20:17.473Z,100.00
2023-04-07T08:22:43.902Z,100.00
2023-04-07T08:25:11.038Z,100.00
2023-04-07T08:27:37.620Z,100.00
2023-04-07T08:30:06.837Z,100.00
2023-04-07T08:32:37.792Z,100.00
2023-04-07T08:35:04.556Z,100.00
2023-04-07T08:37:31.689Z,100.00
2023-04-07T08:39:58.042Z,99.71
2023-04-07T08:42:29.694Z,100.00
2023-04-07T08:45:06.273Z,99.00
2023-04-07T08:47:36.137Z,99.12
2023-04-07T08:50:05.034Z,99.68
2023-04-07T08:52:46.522Z,97.08
2023-04-07T08:55:13.045Z,96.54
2023-04-07T08:57:39.468Z,96.28
2023-04-07T09:00:06.437Z,96.84
2023-04-07T09:02:45.778Z,96.63
2023-04-07T09:05:12.857Z,97.08
2023-04-07T09:07:40.308Z,96.30
2023-04-07T09:10:07.263Z,96.67
2023-04-07T09:12:33.832Z,95.07
2023-04-07T09:15:00.314Z,95.62
2023-04-07T09:17:27.192Z,95.58
2023-04-07T09:19:57.053Z,96.27
2023-04-07T09:22:42.726Z,95.69
2023-04-07T09:25:13.707Z,94.32
2023-04-07T09:27:40.130Z,94.49
2023-04-07T09:30:15.028Z,95.67
2023-04-07T09:32:41.672Z,94.64
2023-04-07T09:35:08.533Z,92.21
2023-04-07T09:37:34.937Z,91.59
2023-04-07T09:40:01.667Z,91.88
2023-04-07T09:42:32.215Z,90.60
2023-04-07T09:45:00.439Z,90.55
2023-04-07T09:47:31.392Z,91.82
2023-04-07T09:49:58.260Z,92.41
2023-04-07T09:52:53.820Z,91.93
2023-04-07T09:55:21.015Z,90.11
2023-04-07T09:57:49.153Z,90.78
2023-04-07T10:00:15.812Z,91.73
2023-04-07T10:02:42.267Z,92.08
2023-04-07T10:05:09.812Z,92.27
2023-04-07T10:07:36.308Z,90.72
2023-04-07T10:10:08.165Z,91.07
2023-04-07T10:12:35.272Z,91.82
2023-04-07T10:15:02.165Z,89.06
2023-04-07T10:17:28.911Z,90.43
2023-04-07T10:19:57.770Z,90.61
2023-04-07T10:22:24.797Z,91.27
2023-04-07T10:24:55.281Z,90.80
2023-04-07T10:27:28.175Z,90.96
2023-04-07T10:29:54.824Z,90.37
2023-04-07T10:32:21.333Z,90.21
2023-04-07T10:34:48.565Z,90.38
2023-04-07T10:37:17.632Z,88.13
2023-04-07T10:39:44.022Z,88.63
2023-04-07T10:42:39.959Z,88.78
2023-04-07T10:45:08.861Z,87.65
2023-04-07T10:47:38.866Z,87.08
2023-04-07T10:50:17.157Z,85.53
2023-04-07T10:52:44.201Z,85.28
2023-04-07T10:55:41.995Z,84.35
2023-04-07T10:58:30.732Z,82.46
2023-04-07T11:00:57.292Z,83.33
2023-04-07T11:03:24.459Z,85.44
2023-04-07T11:05:50.933Z,84.48
2023-04-07T11:08:36.517Z,83.89
2023-04-07T11:11:08.872Z,82.25
2023-04-07T11:13:44.302Z,82.94
2023-04-07T11:16:10.677Z,82.23
2023-04-07T11:18:37.390Z,81.12
2023-04-07T11:21:05.935Z,82.13
2023-04-07T11:23:39.338Z,80.11
2023-04-07T11:26:05.929Z,79.95
2023-04-07T11:28:32.345Z,79.42
2023-04-07T11:31:00.109Z,78.81
2023-04-07T11:33:28.233Z,78.79
2023-04-07T11:35:59.300Z,76.38
2023-04-07T11:38:27.312Z,76.55
2023-04-07T11:40:54.713Z,77.46
2023-04-07T11:43:25.920Z,76.67
2023-04-07T11:46:07.590Z,77.18
2023-04-07T11:48:34.762Z,76.42
2023-04-07T11:51:01.607Z,76.46
2023-04-07T11:53:34.869Z,76.23
2023-04-07T11:56:10.432Z,76.01
2023-04-07T11:58:37.045Z,74.70
2023-04-07T12:01:11.545Z,73.54
2023-04-07T12:03:38.366Z,75.35
2023-04-07T12:06:05.027Z,73.10
2023-04-07T12:08:41.681Z,72.33
2023-04-07T12:11:09.137Z,69.99
2023-04-07T12:13:36.557Z,72.23
2023-04-07T12:16:03.231Z,71.75
2023-04-07T12:18:29.720Z,71.06
2023-04-07T12:20:56.400Z,70.40
2023-04-07T12:23:22.893Z,68.80
2023-04-07T12:25:49.242Z,67.99
2023-04-07T12:28:15.647Z,68.51
2023-04-07T12:30:42.422Z,67.81
2023-04-07T12:33:08.792Z,68.95
2023-04-07T12:35:35.376Z,68.09
2023-04-07T12:38:03.019Z,66.50
2023-04-07T12:40:29.601Z,66.32
2023-04-07T12:42:58.209Z,65.55
2023-04-07T12:45:24.839Z,64.56
2023-04-07T12:47:51.551Z,62.33
2023-04-07T12:50:18.616Z,64.40
2023-04-07T12:52:45.074Z,63.48
2023-04-07T12:55:11.612Z,62.32
2023-04-07T12:57:38.656Z,62.47
2023-04-07T13:00:05.949Z,62.67
2023-04-07T13:02:32.693Z,63.87
2023-04-07T13:04:59.137Z,61.88
2023-04-07T13:07:25.557Z,63.71
2023-04-07T13:09:51.944Z,64.18
2023-04-07T13:12:18.313Z,63.70
2023-04-07T13:14:56.986Z,65.44
2023-04-07T13:17:26.361Z,63.23
2023-04-07T13:19:52.951Z,63.27
2023-04-07T13:22:22.117Z,63.94
2023-04-07T13:24:49.681Z,62.07
2023-04-07T13:27:16.105Z,61.59
2023-04-07T13:29:42.488Z,62.31
2023-04-07T13:32:09.412Z,61.01
2023-04-07T13:34:36.503Z,59.96
2023-04-07T13:37:06.123Z,60.12
2023-04-07T13:39:32.697Z,60.71
2023-04-07T13:41:59.290Z,60.44
2023-04-07T13:44:26.355Z,60.86
2023-04-07T13:46:53.230Z,62.14
2023-04-07T13:49:19.695Z,61.93
2023-04-07T13:51:46.176Z,62.06
2023-04-07T13:54:12.594Z,61.49
2023-04-07T13:56:38.986Z,62.91
2023-04-07T13:59:06.030Z,61.79
2023-04-07T14:01:33.874Z,61.96
2023-04-07T14:04:01.215Z,62.51
2023-04-07T14:06:27.736Z,61.50
2023-04-07T14:08:54.341Z,59.09
2023-04-07T14:11:22.704Z,61.00
2023-04-07T14:13:49.585Z,61.06
2023-04-07T14:16:16.658Z,58.99
2023-04-07T14:18:43.574Z,60.78
2023-04-07T14:21:10.059Z,60.62
2023-04-07T14:23:37.955Z,62.43
2023-04-07T14:26:04.647Z,60.96
2023-04-07T14:28:31.595Z,60.74
2023-04-07T14:30:57.994Z,60.24
2023-04-07T14:33:24.755Z,58.13
2023-04-07T14:35:51.569Z,57.88
2023-04-07T14:38:17.965Z,56.86
2023-04-07T14:40:45.244Z,58.50
2023-04-07T14:43:12.216Z,61.72
2023-04-07T14:45:38.720Z,62.81
2023-04-07T14:48:05.907Z,60.90
2023-04-07T14:50:35.097Z,62.16
2023-04-07T14:53:01.518Z,62.63
2023-04-07T14:55:27.929Z,63.69
2023-04-07T14:57:54.307Z,63.42
2023-04-07T15:00:20.696Z,64.42
2023-04-07T15:02:47.312Z,63.69
2023-04-07T15:05:13.820Z,64.56
2023-04-07T15:07:40.338Z,62.84
2023-04-07T15:10:07.197Z,63.10
2023-04-07T15:12:33.538Z,63.28
2023-04-07T15:15:00.448Z,63.23
2023-04-07T15:17:40.023Z,62.98
2023-04-07T15:20:10.115Z,63.95
2023-04-07T15:22:36.549Z,66.02
2023-04-07T15:25:03.578Z,64.71
2023-04-07T15:27:30.182Z,64.16
2023-04-07T15:29:56.638Z,64.95
2023-04-07T15:32:22.994Z,63.32
2023-04-07T15:34:49.605Z,64.24
2023-04-07T15:37:17.282Z,64.17
2023-04-07T15:39:43.724Z,64.45
2023-04-07T15:42:12.429Z,64.50
2023-04-07T15:44:39.564Z,65.17
2023-04-07T15:47:06.671Z,65.51
2023-04-07T15:49:33.351Z,65.00
2023-04-07T15:52:01.405Z,65.44
2023-04-07T15:54:27.757Z,65.05
2023-04-07T15:56:54.180Z,64.89
2023-04-07T15:59:20.557Z,64.44
2023-04-07T16:01:47.068Z,66.28
2023-04-07T16:04:13.536Z,68.76
2023-04-07T16:06:40.038Z,69.84
2023-04-07T16:09:06.417Z,71.04
2023-04-07T16:11:32.771Z,71.85
2023-04-07T16:13:59.173Z,72.72
2023-04-07T16:16:25.612Z,73.25
2023-04-07T16:18:51.995Z,72.70
2023-04-07T16:21:18.377Z,72.62
2023-04-07T16:23:44.709Z,72.08
2023-04-07T16:26:11.085Z,72.13
2023-04-07T16:28:39.204Z,72.35
2023-04-07T16:31:08.597Z,71.29
2023-04-07T16:33:36.238Z,71.03
2023-04-07T16:36:02.672Z,71.53
2023-04-07T16:38:29.114Z,70.62
2023-04-07T16:41:03.969Z,72.28
2023-04-07T16:43:31.334Z,73.63
2023-04-07T16:45:59.922Z,73.08
2023-04-07T16:48:26.656Z,74.49
2023-04-07T16:50:53.254Z,74.03
2023-04-07T16:53:21.318Z,75.52
2023-04-07T16:55:48.101Z,76.96
2023-04-07T16:58:18.738Z,77.80
2023-04-07T17:00:45.735Z,78.08
2023-04-07T17:03:13.764Z,78.82
2023-04-07T17:05:40.411Z,78.72
2023-04-07T17:08:06.758Z,79.96
2023-04-07T17:10:33.102Z,80.04
2023-04-07T17:12:59.536Z,80.54
2023-04-07T17:15:25.959Z,81.75
2023-04-07T17:17:52.620Z,83.35
2023-04-07T17:20:19.438Z,83.83
2023-04-07T17:22:46.602Z,82.80
2023-04-07T17:25:12.961Z,82.43
2023-04-07T17:27:39.557Z,83.29
2023-04-07T17:30:07.626Z,84.12
2023-04-07T17:32:34.028Z,84.15
2023-04-07T17:35:00.629Z,84.29
2023-04-07T17:37:27.023Z,84.89
2023-04-07T17:39:53.377Z,86.26
2023-04-07T17:42:19.751Z,86.12
2023-04-07T17:44:46.924Z,86.25
2023-04-07T17:47:13.352Z,85.54
2023-04-07T17:49:40.495Z,85.35
2023-04-07T17:52:07.150Z,86.07
2023-04-07T17:54:34.482Z,86.83
2023-04-07T17:57:01.119Z,87.91
2023-04-07T17:59:27.508Z,88.73
2023-04-07T18:01:53.988Z,89.78
2023-04-07T18:04:21.153Z,90.52
2023-04-07T18:06:47.658Z,91.52
2023-04-07T18:09:14.689Z,93.69
2023-04-07T18:11:41.616Z,93.64
2023-04-07T18:14:07.954Z,94.95
2023-04-07T18:16:34.475Z,96.61
2023-04-07T18:19:01.710Z,97.25
2023-04-07T18:21:29.485Z,98.71
2023-04-07T18:23:55.860Z,100.00
2023-04-07T18:26:22.477Z,100.00
2023-04-07T18:28:48.902Z,100.00
2023-04-07T18:31:15.861Z,100.00
2023-04-07T18:33:42.274Z,100.00
2023-04-07T18:36:08.809Z,100.00
2023-04-07T18:38:35.765Z,100.00
2023-04-07T18:41:02.160Z,100.00
2023-04-07T18:43:28.589Z,100.00
2023-04-07T18:45:55.018Z,100.00
2023-04-07T18:48:21.652Z,100.00
2023-04-07T18:50:52.215Z,100.00
2023-04-07T18:53:21.789Z,100.00
2023-04-07T18:55:48.529Z,100.00
2023-04-07T18:58:15.053Z,100.00
2023-04-07T19:00:42.047Z,100.00
2023-04-07T19:03:08.670Z,100.00
2023-04-07T19:05:37.139Z,100.00
2023-04-07T19:08:03.598Z,100.00
2023-04-07T19:10:30.049Z,100.00
2023-04-07T19:12:56.412Z,100.00
2023-04-07T19:15:22.748Z,100.00
2023-04-07T19:17:49.566Z,100.00
2023-04-07T19:20:16.282Z,100.00
2023-04-07T19:22:43.908Z,100.00
2023-04-07T19:25:10.581Z,100.00
2023-04-07T19:27:37.840Z,100.00
2023-04-07T19:30:04.556Z,100.00
2023-04-07T19:32:31.287Z,100.00
2023-04-07T19:34:57.652Z,100.00
2023-04-07T19:37:24.041Z,100.00
2023-04-07T19:40:01.588Z,100.00
2023-04-07T19:42:29.651Z,100.00
2023-04-07T19:44:58.359Z,100.00
2023-04-07T19:47:24.998Z,100.00
2023-04-07T19:49:51.414Z,100.00
2023-04-07T19:52:18.039Z,100.00
2023-04-07T19:54:44.407Z,100.00
2023-04-07T19:57:11.040Z,100.00
2023-04-07T19:59:37.581Z,100.00
2023-04-07T20:02:04.009Z,100.00
2023-04-07T20:04:30.395Z,100.00
2023-04-07T20:06:56.763Z,100.00
2023-04-07T20:09:25.655Z,100.00
2023-04-07T20:11:52.170Z,100.00
2023-04-07T20:14:18.652Z,100.00
2023-04-07T20:16:45.152Z,100.00
2023-04-07T20:19:11.628Z,100.00
2023-04-07T20:21:38.072Z,100.00
2023-04-07T20:24:04.540Z,100.00
2023-04-07T20:26:30.927Z,100.00
2023-04-07T20:28:57.426Z,100.00
2023-04-07T20:31:23.897Z,100.00
2023-04-07T20:33:50.488Z,100.00
2023-04-07T20:36:18.076Z,100.00
2023-04-07T20:38:44.605Z,100.00
2023-04-07T20:41:12.723Z,100.00
2023-04-07T20:43:39.135Z,100.00
2023-04-07T20:46:06.040Z,100.00
2023-04-07T20:48:32.915Z,100.00
2023-04-07T20:50:59.527Z,100.00
2023-04-07T20:53:26.280Z,100.00
2023-04-07T20:55:52.703Z,100.00
2023-04-07T20:58:19.154Z,100.00
2023-04-07T21:00:46.269Z,100.00
2023-04-07T21:03:13.305Z,100.00
2023-04-07T21:05:44.835Z,100.00
2023-04-07T21:08:13.226Z,100.00
2023-04-07T21:10:41.139Z,100.00
2023-04-07T21:13:07.540Z,100.00
2023-04-07T21:15:35.155Z,100.00
2023-04-07T21:18:03.767Z,100.00
2023-04-07T21:20:31.194Z,100.00
2023-04-07T21:22:57.583Z,100.00
2023-04-07T21:25:23.947Z,100.00
2023-04-07T21:27:50.619Z,100.00
2023-04-07T21:30:17.956Z,100.00
2023-04-07T21:32:47.468Z,100.00
2023-04-07T21:35:13.975Z,100.00
2023-04-07T21:37:40.849Z,100.00
2023-04-07T21:40:07.849Z,100.00
2023-04-07T21:42:34.241Z,100.00
2023-04-07T21:45:00.712Z,100.00
2023-04-07T21:47:27.118Z,100.00
2023-04-07T21:49:53.680Z,100.00
2023-04-07T21:52:20.631Z,100.00
2023-04-07T21:54:47.477Z,100.00
2023-04-07T21:57:13.883Z,100.00
2023-04-07T21:59:40.442Z,100.00
2023-04-07T22:02:06.982Z,100.00
2023-04-07T22:04:33.442Z,100.00
2023-04-07T22:07:00.630Z,100.00
2023-04-07T22:09:27.235Z,100.00
2023-04-07T22:11:54.143Z,100.00
2023-04-07T22:14:24.778Z,100.00
2023-04-07T22:16:51.925Z,100.00
2023-04-07T22:19:18.950Z,100.00
2023-04-07T22:21:45.638Z,100.00
2023-04-07T22:24:12.003Z,100.00
2023-04-07T22:26:38.626Z,100.00
2023-04-07T22:29:05.007Z,100.00
2023-04-07T22:31:31.498Z,100.00
2023-04-07T22:33:58.080Z,100.00
2023-04-07T22:36:24.513Z,100.00
2023-04-07T22:38:51.096Z,100.00
2023-04-07T22:41:17.720Z,100.00
2023-04-07T22:43:44.077Z,100.00
2023-04-07T22:46:10.423Z,100.00
2023-04-07T22:48:36.872Z,100.00
2023-04-07T22:51:03.321Z,100.00
2023-04-07T22:53:29.761Z,100.00
2023-04-07T22:55:56.333Z,100.00
2023-04-07T22:58:22.666Z,100.00
2023-04-07T23:00:49.146Z,100.00
2023-04-07T23:03:15.771Z,100.00
2023-04-07T23:05:42.195Z,100.00
2023-04-07T23:08:08.591Z,100.00
2023-04-07T23:10:35.128Z,100.00
2023-04-07T23:13:01.785Z,100.00
2023-04-07T23:15:28.152Z,100.00
2023-04-07T23:17:54.955Z,100.00
2023-04-07T23:20:21.309Z,100.00
2023-04-07T23:22:47.673Z,100.00
2023-04-07T23:25:14.064Z,100.00
2023-04-07T23:27:40.579Z,100.00
2023-04-07T23:30:07.699Z,100.00
2023-04-07T23:32:34.491Z,100.00
2023-04-07T23:35:01.525Z,100.00
2023-04-07T23:37:27.874Z,100.00
2023-04-07T23:39:54.433Z,100.00
2023-04-07T23:42:20.848Z,100.00
2023-04-07T23:44:47.259Z,76.28
2023-04-07T23:47:13.653Z,35.39
2023-04-07T23:49:40.424Z,31.88
2023-04-07T23:52:06.788Z,36.28
2023-04-07T23:54:33.406Z,44.63
2023-04-07T23:56:59.747Z,70.14
2023-04-07T23:59:26.127Z,80.15
